createdAt,value
2023-01-30T00:01:07.453Z,11.02
2023-01-30T00:04:09.765Z,12.18
2023-01-30T00:07:11.283Z,10.98
2023-01-30T00:10:12.977Z,12.38
2023-01-30T00:13:15.317Z,12.05
2023-01-30T00:16:18.427Z,11.30
2023-01-30T00:19:19.956Z,11.57
2023-01-30T00:22:21.448Z,11.25
2023-01-30T00:25:23.046Z,11.63
2023-01-30T00:28:25.245Z,11.63
2023-01-30T00:31:26.822Z,12.70
2023-01-30T00:34:28.365Z,11.75
2023-01-30T00:37:29.889Z,11.35
2023-01-30T00:40:32.529Z,11.18
2023-01-30T00:47:38.535Z,11.80
2023-01-30T00:50:42.756Z,10.60
2023-01-30T00:53:46.671Z,10.48
2023-01-30T00:56:48.927Z,11.75
2023-01-30T00:59:50.544Z,13.02
2023-01-30T01:02:52.133Z,11.57
2023-01-30T01:05:53.713Z,11.50
2023-01-30T01:08:55.332Z,12.00
2023-01-30T01:11:56.963Z,12.02
2023-01-30T01:14:58.649Z,12.63
2023-01-30T01:18:00.243Z,12.13
2023-01-30T01:21:01.757Z,13.05
2023-01-30T01:24:03.474Z,12.32
2023-01-30T01:27:04.993Z,12.18
2023-01-30T01:30:08.364Z,11.65
2023-01-30T01:33:11.507Z,12.80
2023-01-30T01:36:20.018Z,11.38
2023-01-30T01:39:51.067Z,11.88
2023-01-30T01:42:52.803Z,11.77
2023-01-30T01:46:10.199Z,11.93
2023-01-30T06:38:21.336Z,11.75
2023-01-30T06:41:22.867Z,12.68
2023-01-30T06:44:24.396Z,12.68
2023-01-30T06:47:25.865Z,13.32
2023-01-30T06:50:28.862Z,12.85
2023-01-30T06:53:30.788Z,12.50
2023-01-30T06:56:32.275Z,14.43
2023-01-30T06:59:33.691Z,13.30
2023-01-30T07:02:35.528Z,12.68
2023-01-30T07:05:39.035Z,13.90
2023-01-30T07:08:41.014Z,13.27
2023-01-30T07:11:42.632Z,13.60
2023-01-30T07:14:44.119Z,13.23
2023-01-30T07:17:45.676Z,13.68
2023-01-30T07:20:48.619Z,14.27
2023-01-30T07:23:50.116Z,13.02
2023-01-30T07:26:51.635Z,13.43
2023-01-30T07:29:53.408Z,13.75
2023-01-30T07:32:57.858Z,12.27
2023-01-30T07:35:59.391Z,12.82
2023-01-30T07:39:01.602Z,11.82
2023-01-30T07:42:04.161Z,13.10
2023-01-30T07:45:06.438Z,13.07
2023-01-30T07:48:10.193Z,12.50
2023-01-30T07:51:11.982Z,14.52
2023-01-30T07:54:13.493Z,15.73
2023-01-30T07:57:14.984Z,15.35
2023-01-30T08:00:17.429Z,29.45
2023-01-30T08:03:19.042Z,14.57
2023-01-30T08:06:20.614Z,12.50
2023-01-30T08:09:22.105Z,14.48
2023-01-30T08:12:23.652Z,13.77
2023-01-30T08:15:25.123Z,12.60
2023-01-30T08:18:28.738Z,13.43
2023-01-30T08:21:30.269Z,14.38
2023-01-30T08:24:31.708Z,14.93
2023-01-30T08:27:33.212Z,15.10
2023-01-30T08:30:34.683Z,16.65
2023-01-30T08:33:36.276Z,17.60
2023-01-30T08:36:37.731Z,17.05
2023-01-30T08:39:39.208Z,16.35
2023-01-30T08:42:40.897Z,16.20
2023-01-30T08:45:42.341Z,16.58
2023-01-30T08:48:50.018Z,15.80
2023-01-30T08:51:51.839Z,16.17
2023-01-30T08:54:53.313Z,17.13
2023-01-30T08:57:56.803Z,13.48
2023-01-30T09:00:58.374Z,13.05
2023-01-30T09:03:59.852Z,14.55
2023-01-30T09:07:01.287Z,12.98
2023-01-30T09:10:03.042Z,14.55
2023-01-30T09:13:05.534Z,12.73
2023-01-30T09:16:07.199Z,12.98
2023-01-30T09:19:08.692Z,11.98
2023-01-30T09:22:10.419Z,13.40
2023-01-30T09:25:12.208Z,12.88
2023-01-30T09:28:13.936Z,13.23
2023-01-30T09:31:15.550Z,12.13
2023-01-30T09:34:17.080Z,11.07
2023-01-30T09:37:18.572Z,10.60
2023-01-30T09:40:32.561Z,11.20
2023-01-30T09:43:41.067Z,11.00
2023-01-30T09:46:54.678Z,10.48
2023-01-30T09:50:20.198Z,11.80
2023-01-30T09:53:55.887Z,11.13
2023-01-30T09:57:21.308Z,10.38
2023-01-30T10:00:37.594Z,10.50
2023-01-30T10:03:59.729Z,11.02
2023-01-30T10:07:10.098Z,10.05
2023-01-30T10:10:39.431Z,10.60
2023-01-30T10:14:10.029Z,10.45
2023-01-30T10:17:41.134Z,10.75
2023-01-30T10:21:06.947Z,12.00
2023-01-30T10:24:23.520Z,11.38
2023-01-30T10:27:26.118Z,13.45
2023-01-30T10:30:27.963Z,14.27
2023-01-30T10:33:36.892Z,13.13
2023-01-30T10:37:08.501Z,10.25
2023-01-30T10:40:33.640Z,11.30
2023-01-30T10:43:42.579Z,9.93
2023-01-30T10:47:11.451Z,9.73
2023-01-30T10:50:24.656Z,10.90
2023-01-30T10:53:42.295Z,9.57
2023-01-30T10:56:57.185Z,10.25
2023-01-30T11:00:35.975Z,10.43
2023-01-30T11:03:44.597Z,9.50
2023-01-30T11:06:46.499Z,9.88
2023-01-30T11:09:49.049Z,10.57
2023-01-30T11:13:14.478Z,9.68
2023-01-30T11:16:16.753Z,8.80
2023-01-30T11:19:22.735Z,11.15
2023-01-30T11:22:28.723Z,9.77
2023-01-30T11:25:30.280Z,9.85
2023-01-30T11:28:40.740Z,8.93
2023-01-30T11:31:42.826Z,8.27
2023-01-30T11:34:44.613Z,7.15
2023-01-30T11:37:46.088Z,7.53
2023-01-30T11:40:47.576Z,7.00
2023-01-30T11:43:49.199Z,5.07
2023-01-30T11:46:50.736Z,4.78
2023-01-30T11:50:16.857Z,4.55
2023-01-30T11:53:46.533Z,5.80
2023-01-30T11:56:53.673Z,5.22
2023-01-30T11:59:58.514Z,4.20
2023-01-30T12:03:05.615Z,4.07
2023-01-30T12:06:07.220Z,4.32
2023-01-30T12:09:38.659Z,4.45
2023-01-30T12:12:49.450Z,4.30
2023-01-30T12:15:57.854Z,4.50
2023-01-30T12:19:12.939Z,4.63
2023-01-30T12:22:36.158Z,5.47
2023-01-30T12:25:56.695Z,4.25
2023-01-30T12:29:03.987Z,4.50
2023-01-30T12:32:11.270Z,4.35
2023-01-30T12:35:26.794Z,3.70
2023-01-30T12:38:49.877Z,3.63
2023-01-30T12:42:26.090Z,4.03
2023-01-30T12:45:40.411Z,4.28
2023-01-30T12:49:11.497Z,4.40
2023-01-30T12:52:31.985Z,3.85
2023-01-30T12:55:57.221Z,4.15
2023-01-30T12:59:10.833Z,4.20
2023-01-30T13:02:30.779Z,3.37
2023-01-30T13:05:41.103Z,3.63
2023-01-30T13:09:02.738Z,4.10
2023-01-30T13:12:17.082Z,4.40
2023-01-30T13:15:47.887Z,4.00
2023-01-30T13:18:57.196Z,3.90
2023-01-30T13:22:03.383Z,3.97
2023-01-30T13:25:36.575Z,4.25
2023-01-30T13:28:47.450Z,4.47
2023-01-30T13:31:54.853Z,4.15
2023-01-30T13:34:59.376Z,4.95
2023-01-30T13:38:03.186Z,5.03
2023-01-30T13:41:05.841Z,4.68
2023-01-30T13:44:19.123Z,4.43
2023-01-30T13:47:32.707Z,4.38
2023-01-30T13:50:50.611Z,5.07
2023-01-30T13:54:07.326Z,4.43
2023-01-30T13:57:39.826Z,4.38
2023-01-30T14:00:53.615Z,4.78
2023-01-30T14:03:55.124Z,4.28
2023-01-30T14:07:20.237Z,4.75
2023-01-30T14:10:23.698Z,4.13
2023-01-30T14:13:27.284Z,4.10
2023-01-30T14:16:43.928Z,4.00
2023-01-30T14:19:48.466Z,4.35
2023-01-30T14:22:58.327Z,4.38
2023-01-30T14:26:00.657Z,4.30
2023-01-30T14:29:02.111Z,3.88
2023-01-30T14:32:23.967Z,4.30
2023-01-30T14:35:30.513Z,4.30
2023-01-30T14:38:33.117Z,4.03
2023-01-30T14:41:34.581Z,4.93
2023-01-30T14:44:55.504Z,4.47
2023-01-30T14:48:25.051Z,4.90
2023-01-30T14:51:56.600Z,4.57
2023-01-30T14:54:58.055Z,4.75
2023-01-30T14:58:02.714Z,4.57
2023-01-30T15:01:04.841Z,4.35
2023-01-30T15:04:06.353Z,4.50
2023-01-30T15:07:12.255Z,4.75
2023-01-30T15:10:25.407Z,4.68
2023-01-30T15:13:55.696Z,4.47
2023-01-30T15:17:11.963Z,5.10
2023-01-30T15:20:32.400Z,4.43
2023-01-30T15:24:09.987Z,4.70
2023-01-30T15:27:27.399Z,4.45
2023-01-30T15:30:37.940Z,4.57
2023-01-30T15:33:47.419Z,5.10
2023-01-30T15:36:49.101Z,4.90
2023-01-30T15:39:50.598Z,5.10
2023-01-30T15:43:01.058Z,4.50
2023-01-30T15:46:13.127Z,5.20
2023-01-30T15:49:41.831Z,5.22
2023-01-30T15:52:48.214Z,5.25
2023-01-30T15:55:50.868Z,5.63
2023-01-30T15:58:53.960Z,6.22
2023-01-30T16:02:28.893Z,4.95
2023-01-30T16:05:31.115Z,4.57
2023-01-30T16:08:34.961Z,37.92
2023-01-30T16:11:40.707Z,4.63
2023-01-30T16:14:42.132Z,5.22
2023-01-30T16:17:47.803Z,13.82
2023-01-30T16:21:01.654Z,5.03
2023-01-30T16:27:19.859Z,5.18
2023-01-30T16:30:25.067Z,4.60
2023-01-30T16:33:27.310Z,5.00
2023-01-30T16:36:32.935Z,4.93
2023-01-30T16:39:37.361Z,4.43
2023-01-30T16:42:39.146Z,4.10
2023-01-30T16:45:52.879Z,4.55
2023-01-30T16:49:04.776Z,4.72
2023-01-30T16:52:15.337Z,5.03
2023-01-30T16:55:24.290Z,4.68
2023-01-30T16:58:32.675Z,4.18
2023-01-30T17:01:40.532Z,4.60
2023-01-30T17:04:43.233Z,4.47
2023-01-30T17:07:45.574Z,4.78
2023-01-30T17:10:52.005Z,3.90
2023-01-30T17:14:10.638Z,4.05
2023-01-30T17:17:14.365Z,4.18
2023-01-30T17:20:16.537Z,3.88
2023-01-30T17:23:19.664Z,3.67
2023-01-30T17:26:21.641Z,4.32
2023-01-30T17:29:41.446Z,3.67
2023-01-30T17:32:43.959Z,3.75
2023-01-30T17:35:45.970Z,3.92
2023-01-30T17:38:47.806Z,9.68
2023-01-30T17:41:49.696Z,5.65
2023-01-30T17:44:51.703Z,6.97
2023-01-30T17:47:53.164Z,10.65
2023-01-30T17:50:54.863Z,17.48
2023-01-30T17:53:56.479Z,10.90
2023-01-30T17:57:04.192Z,6.28
2023-01-30T18:00:06.254Z,13.27
2023-01-30T18:03:10.844Z,17.23
2023-01-30T18:06:16.048Z,9.00
2023-01-30T18:09:24.413Z,4.13
2023-01-30T18:12:26.554Z,5.00
2023-01-30T18:15:28.133Z,5.82
2023-01-30T18:18:29.611Z,6.00
2023-01-30T18:21:33.160Z,5.70
2023-01-30T18:24:34.695Z,4.00
2023-01-30T18:27:36.208Z,4.38
2023-01-30T18:30:37.910Z,8.20
2023-01-30T18:33:41.062Z,9.27
2023-01-30T18:36:42.860Z,10.68
2023-01-30T18:39:44.347Z,14.38
2023-01-30T18:42:46.407Z,8.57
2023-01-30T18:45:48.485Z,8.75
2023-01-30T18:48:49.983Z,11.32
2023-01-30T18:51:51.515Z,6.72
2023-01-30T18:54:53.056Z,6.68
2023-01-30T18:57:54.627Z,7.15
2023-01-30T19:00:57.843Z,7.13
2023-01-30T19:04:01.153Z,6.45
2023-01-30T19:07:02.646Z,7.60
2023-01-30T19:10:04.509Z,7.85
2023-01-30T19:13:24.974Z,8.73
2023-01-30T19:16:28.167Z,9.25
2023-01-30T19:19:29.702Z,8.00
2023-01-30T19:22:31.221Z,9.48
2023-01-30T19:25:32.772Z,9.30
2023-01-30T19:28:35.415Z,10.20
2023-01-30T19:31:37.109Z,10.45
2023-01-30T19:34:38.737Z,11.63
2023-01-30T19:37:40.288Z,16.73
2023-01-30T19:40:45.543Z,11.02
2023-01-30T19:43:47.464Z,12.15
2023-01-30T19:46:49.354Z,7.63
2023-01-30T19:49:51.925Z,4.97
2023-01-30T19:52:53.427Z,5.05
2023-01-30T19:55:55.108Z,4.75
2023-01-30T19:58:58.710Z,5.95
2023-01-30T20:02:00.289Z,5.53
2023-01-30T20:05:02.623Z,6.85
2023-01-30T20:08:04.499Z,6.47
2023-01-30T20:11:08.523Z,7.93
2023-01-30T20:14:10.912Z,7.55
2023-01-30T20:17:14.224Z,7.32
2023-01-30T20:20:17.154Z,5.40
2023-01-30T20:23:19.572Z,4.70
2023-01-30T20:26:27.047Z,4.57
2023-01-30T20:29:28.641Z,7.90
2023-01-30T20:32:30.868Z,6.05
2023-01-30T20:35:35.658Z,6.30
2023-01-30T20:38:39.582Z,5.90
2023-01-30T20:41:41.193Z,5.18
2023-01-30T20:44:42.660Z,7.15
2023-01-30T20:47:44.140Z,7.20
2023-01-30T20:50:45.598Z,10.13
2023-01-30T20:53:52.884Z,3.20
2023-01-30T20:56:54.632Z,3.95
2023-01-30T20:59:56.137Z,3.95
2023-01-30T21:02:58.921Z,7.25
2023-01-30T21:06:01.525Z,10.77
2023-01-30T21:09:04.774Z,7.05
2023-01-30T21:12:07.232Z,5.27
2023-01-30T21:15:09.375Z,4.45
2023-01-30T21:18:10.900Z,4.32
2023-01-30T21:21:39.296Z,3.47
2023-01-30T21:24:40.789Z,4.15
2023-01-30T21:27:46.344Z,3.35
2023-01-30T21:30:48.015Z,3.03
2023-01-30T21:33:49.624Z,3.42
2023-01-30T21:37:09.616Z,4.95
2023-01-30T21:40:30.619Z,4.80
2023-01-30T21:43:32.043Z,4.47
2023-01-30T21:46:38.125Z,4.60
2023-01-30T21:49:40.656Z,4.25
2023-01-30T21:52:42.162Z,4.50
2023-01-30T21:55:48.955Z,4.38
2023-01-30T21:58:50.426Z,3.90
2023-01-30T22:01:51.912Z,4.45
2023-01-30T22:04:53.408Z,4.35
2023-01-30T22:07:54.843Z,4.25
2023-01-30T22:11:09.403Z,3.53
2023-01-30T22:14:14.634Z,3.15
2023-01-30T22:17:16.184Z,4.47
2023-01-30T22:20:17.687Z,5.32
2023-01-30T22:23:19.119Z,5.57
2023-01-30T22:26:23.914Z,5.20
2023-01-30T22:29:25.444Z,5.07
2023-01-30T22:32:26.906Z,4.00
2023-01-30T22:35:28.356Z,4.13
2023-01-30T22:38:29.897Z,4.22
2023-01-30T22:41:37.148Z,5.22
2023-01-30T22:44:39.778Z,4.47
2023-01-30T22:47:41.261Z,5.10
2023-01-30T22:50:42.688Z,4.80
2023-01-30T22:53:53.383Z,4.57
2023-01-30T22:56:54.911Z,3.65
2023-01-30T22:59:56.345Z,3.75
2023-01-30T23:02:57.856Z,3.47
2023-01-30T23:06:01.207Z,3.65
2023-01-30T23:09:04.772Z,3.05
2023-01-30T23:12:24.880Z,3.40
2023-01-30T23:15:26.365Z,3.28
2023-01-30T23:18:46.765Z,2.92
2023-01-30T23:21:48.294Z,3.80
2023-01-30T23:24:50.968Z,4.25
2023-01-30T23:27:52.526Z,4.05
2023-01-30T23:30:54.030Z,3.65
2023-01-30T23:33:59.579Z,3.30
2023-01-30T23:37:01.105Z,4.03
2023-01-30T23:40:02.578Z,3.97
2023-01-30T23:43:04.383Z,3.95
2023-01-30T23:46:33.361Z,3.90
2023-01-30T23:49:35.347Z,4.38
2023-01-30T23:52:36.865Z,4.45
2023-01-30T23:55:38.668Z,4.28
2023-01-30T23:58:40.910Z,4.43
